sensor_id;sensor_type;location;lat;lon;timestamp;pressure;altitude;pressure_sealevel;temperature;humidity
10460;BME280;54412;51.206;6.888;2022-12-18T00:01:21;102157.75;;;-1.31;64.10
10460;BME280;54412;51.206;6.888;2022-12-18T00:03:48;102155.66;;;-1.47;64.65
10460;BME280;54412;51.206;6.888;2022-12-18T00:06:14;102151.28;;;-1.50;64.80
10460;BME280;54412;51.206;6.888;2022-12-18T00:08:42;102154.00;;;-1.44;65.13
10460;BME280;54412;51.206;6.888;2022-12-18T00:11:14;102157.16;;;-1.57;64.76
10460;BME280;54412;51.206;6.888;2022-12-18T00:13:40;102160.94;;;-1.43;64.70
10460;BME280;54412;51.206;6.888;2022-12-18T00:16:10;102163.25;;;-1.55;64.58
10460;BME280;54412;51.206;6.888;2022-12-18T00:18:37;102167.06;;;-1.76;65.30
10460;BME280;54412;51.206;6.888;2022-12-18T00:21:06;102152.25;;;-1.82;65.80
10460;BME280;54412;51.206;6.888;2022-12-18T00:23:34;102161.53;;;-1.54;64.93
10460;BME280;54412;51.206;6.888;2022-12-18T00:26:06;102150.00;;;-1.67;65.19
10460;BME280;54412;51.206;6.888;2022-12-18T00:28:33;102163.78;;;-1.69;65.01
10460;BME280;54412;51.206;6.888;2022-12-18T00:31:14;102162.09;;;-1.30;64.05
10460;BME280;54412;51.206;6.888;2022-12-18T00:33:42;102160.63;;;-1.19;63.36
10460;BME280;54412;51.206;6.888;2022-12-18T00:36:22;102168.25;;;-1.25;63.97
10460;BME280;54412;51.206;6.888;2022-12-18T00:38:47;102171.78;;;-1.22;62.98
10460;BME280;54412;51.206;6.888;2022-12-18T00:41:16;102169.88;;;-1.29;62.96
10460;BME280;54412;51.206;6.888;2022-12-18T00:44:02;102168.69;;;-1.04;62.23
10460;BME280;54412;51.206;6.888;2022-12-18T00:46:29;102162.03;;;-1.33;63.34
10460;BME280;54412;51.206;6.888;2022-12-18T00:48:55;102152.31;;;-1.04;62.69
10460;BME280;54412;51.206;6.888;2022-12-18T00:51:20;102147.69;;;-1.18;63.01
10460;BME280;54412;51.206;6.888;2022-12-18T00:53:46;102153.25;;;-1.01;62.15
10460;BME280;54412;51.206;6.888;2022-12-18T00:56:12;102154.75;;;-1.11;62.30
10460;BME280;54412;51.206;6.888;2022-12-18T00:58:37;102161.84;;;-1.02;61.87
10460;BME280;54412;51.206;6.888;2022-12-18T01:01:06;102163.47;;;-1.07;62.42
10460;BME280;54412;51.206;6.888;2022-12-18T01:03:32;102168.28;;;-1.22;62.93
10460;BME280;54412;51.206;6.888;2022-12-18T01:05:58;102163.59;;;-1.40;63.23
10460;BME280;54412;51.206;6.888;2022-12-18T01:08:24;102148.28;;;-1.31;63.55
10460;BME280;54412;51.206;6.888;2022-12-18T01:10:51;102157.75;;;-1.31;63.80
10460;BME280;54412;51.206;6.888;2022-12-18T01:13:16;102148.03;;;-1.41;64.47
10460;BME280;54412;51.206;6.888;2022-12-18T01:15:51;102162.44;;;-1.52;64.15
10460;BME280;54412;51.206;6.888;2022-12-18T01:18:17;102159.13;;;-1.82;65.12
10460;BME280;54412;51.206;6.888;2022-12-18T01:20:43;102161.41;;;-1.60;64.77
10460;BME280;54412;51.206;6.888;2022-12-18T01:23:08;102161.13;;;-1.71;64.53
10460;BME280;54412;51.206;6.888;2022-12-18T01:25:36;102167.88;;;-1.77;65.02
10460;BME280;54412;51.206;6.888;2022-12-18T01:28:02;102167.22;;;-1.69;65.02
10460;BME280;54412;51.206;6.888;2022-12-18T01:30:28;102161.50;;;-1.56;64.33
10460;BME280;54412;51.206;6.888;2022-12-18T01:32:54;102156.75;;;-1.73;64.05
10460;BME280;54412;51.206;6.888;2022-12-18T01:35:19;102145.19;;;-1.89;64.85
10460;BME280;54412;51.206;6.888;2022-12-18T01:37:45;102149.16;;;-1.67;64.60
10460;BME280;54412;51.206;6.888;2022-12-18T01:40:11;102148.16;;;-1.72;64.16
10460;BME280;54412;51.206;6.888;2022-12-18T01:42:37;102157.94;;;-1.61;64.21
10460;BME280;54412;51.206;6.888;2022-12-18T01:47:57;102138.88;;;-2.00;64.83
10460;BME280;54412;51.206;6.888;2022-12-18T01:50:39;102136.97;;;-1.34;63.60
10460;BME280;54412;51.206;6.888;2022-12-18T01:53:17;102134.97;;;-1.46;63.47
10460;BME280;54412;51.206;6.888;2022-12-18T01:55:51;102138.91;;;-1.63;63.73
10460;BME280;54412;51.206;6.888;2022-12-18T01:58:19;102141.06;;;-1.44;63.23
10460;BME280;54412;51.206;6.888;2022-12-18T02:00:48;102144.78;;;-1.33;63.24
10460;BME280;54412;51.206;6.888;2022-12-18T02:03:14;102145.59;;;-1.35;63.36
10460;BME280;54412;51.206;6.888;2022-12-18T02:06:01;102147.28;;;-1.37;63.24
10460;BME280;54412;51.206;6.888;2022-12-18T02:09:02;102145.19;;;-1.53;63.81
10460;BME280;54412;51.206;6.888;2022-12-18T02:11:45;102167.31;;;-1.29;63.36
10460;BME280;54412;51.206;6.888;2022-12-18T02:14:37;102157.59;;;-0.98;62.15
10460;BME280;54412;51.206;6.888;2022-12-18T02:17:19;102146.88;;;-1.15;62.69
10460;BME280;54412;51.206;6.888;2022-12-18T02:20:04;102152.84;;;-1.19;62.93
10460;BME280;54412;51.206;6.888;2022-12-18T02:28:06;102141.84;;;-1.09;63.30
10460;BME280;54412;51.206;6.888;2022-12-18T02:30:36;102140.56;;;-1.28;63.70
10460;BME280;54412;51.206;6.888;2022-12-18T02:33:06;102144.66;;;-0.98;63.24
10460;BME280;54412;51.206;6.888;2022-12-18T02:35:35;102138.38;;;-1.10;63.35
10460;BME280;54412;51.206;6.888;2022-12-18T02:38:04;102123.63;;;-1.14;62.85
10460;BME280;54412;51.206;6.888;2022-12-18T02:40:30;102120.22;;;-1.11;63.19
10460;BME280;54412;51.206;6.888;2022-12-18T02:43:14;102124.88;;;-0.95;62.46
10460;BME280;54412;51.206;6.888;2022-12-18T02:45:50;102124.28;;;-1.22;63.28
10460;BME280;54412;51.206;6.888;2022-12-18T02:48:24;102125.13;;;-1.25;63.77
10460;BME280;54412;51.206;6.888;2022-12-18T02:51:14;102136.94;;;-1.36;63.44
10460;BME280;54412;51.206;6.888;2022-12-18T02:53:52;102136.25;;;-1.29;63.98
10460;BME280;54412;51.206;6.888;2022-12-18T02:56:51;102138.97;;;-1.23;63.63
10460;BME280;54412;51.206;6.888;2022-12-18T02:59:29;102140.09;;;-1.10;63.01
10460;BME280;54412;51.206;6.888;2022-12-18T03:02:20;102131.41;;;-1.14;63.04
10460;BME280;54412;51.206;6.888;2022-12-18T03:05:16;102128.44;;;-1.30;63.70
10460;BME280;54412;51.206;6.888;2022-12-18T03:07:51;102124.16;;;-1.30;63.83
10460;BME280;54412;51.206;6.888;2022-12-18T03:10:26;102122.19;;;-0.99;63.02
10460;BME280;54412;51.206;6.888;2022-12-18T03:13:21;102128.13;;;-1.05;62.86
10460;BME280;54412;51.206;6.888;2022-12-18T03:15:53;102126.16;;;-1.15;63.05
10460;BME280;54412;51.206;6.888;2022-12-18T03:18:30;102123.13;;;-1.36;63.52
10460;BME280;54412;51.206;6.888;2022-12-18T03:21:03;102124.00;;;-0.95;62.95
10460;BME280;54412;51.206;6.888;2022-12-18T03:23:40;102111.66;;;-1.09;63.34
10460;BME280;54412;51.206;6.888;2022-12-18T03:26:11;102118.53;;;-1.09;63.09
10460;BME280;54412;51.206;6.888;2022-12-18T03:28:50;102114.75;;;-1.25;63.31
10460;BME280;54412;51.206;6.888;2022-12-18T03:31:21;102113.53;;;-1.40;64.14
10460;BME280;54412;51.206;6.888;2022-12-18T03:33:57;102106.69;;;-1.77;65.04
10460;BME280;54412;51.206;6.888;2022-12-18T03:36:25;102090.19;;;-1.82;65.86
10460;BME280;54412;51.206;6.888;2022-12-18T03:38:51;102105.75;;;-1.80;64.84
10460;BME280;54412;51.206;6.888;2022-12-18T03:41:47;102116.16;;;-1.77;64.35
10460;BME280;54412;51.206;6.888;2022-12-18T03:47:18;102112.94;;;-2.03;65.04
10460;BME280;54412;51.206;6.888;2022-12-18T03:50:10;102114.34;;;-2.16;65.56
10460;BME280;54412;51.206;6.888;2022-12-18T03:52:53;102115.63;;;-2.33;65.83
10460;BME280;54412;51.206;6.888;2022-12-18T03:55:22;102105.00;;;-2.10;65.08
10460;BME280;54412;51.206;6.888;2022-12-18T03:57:52;102105.50;;;-1.91;64.77
10460;BME280;54412;51.206;6.888;2022-12-18T04:00:19;102107.00;;;-1.99;65.22
10460;BME280;54412;51.206;6.888;2022-12-18T04:02:51;102096.72;;;-1.96;64.74
10460;BME280;54412;51.206;6.888;2022-12-18T04:05:19;102092.94;;;-1.74;63.96
10460;BME280;54412;51.206;6.888;2022-12-18T04:07:47;102098.38;;;-1.64;63.81
10460;BME280;54412;51.206;6.888;2022-12-18T04:10:16;102091.78;;;-1.50;63.92
10460;BME280;54412;51.206;6.888;2022-12-18T04:12:42;102083.31;;;-1.80;63.80
10460;BME280;54412;51.206;6.888;2022-12-18T04:15:10;102091.41;;;-1.66;63.79
10460;BME280;54412;51.206;6.888;2022-12-18T04:17:36;102084.59;;;-1.63;63.80
10460;BME280;54412;51.206;6.888;2022-12-18T04:20:03;102084.72;;;-1.94;64.40
10460;BME280;54412;51.206;6.888;2022-12-18T04:22:29;102093.19;;;-1.99;64.41
10460;BME280;54412;51.206;6.888;2022-12-18T04:24:54;102085.16;;;-2.12;64.95
10460;BME280;54412;51.206;6.888;2022-12-18T04:27:21;102083.75;;;-1.97;64.24
10460;BME280;54412;51.206;6.888;2022-12-18T04:29:46;102079.91;;;-2.15;64.73
10460;BME280;54412;51.206;6.888;2022-12-18T04:32:12;102083.47;;;-2.09;65.06
10460;BME280;54412;51.206;6.888;2022-12-18T04:34:38;102085.63;;;-2.28;64.98
10460;BME280;54412;51.206;6.888;2022-12-18T04:37:03;102087.19;;;-2.34;65.57
10460;BME280;54412;51.206;6.888;2022-12-18T04:39:29;102086.16;;;-2.05;65.44
10460;BME280;54412;51.206;6.888;2022-12-18T04:41:55;102093.50;;;-1.50;63.89
10460;BME280;54412;51.206;6.888;2022-12-18T04:44:21;102092.47;;;-1.94;64.07
10460;BME280;54412;51.206;6.888;2022-12-18T04:46:46;102085.88;;;-2.17;64.58
10460;BME280;54412;51.206;6.888;2022-12-18T04:49:12;102085.69;;;-2.25;64.81
10460;BME280;54412;51.206;6.888;2022-12-18T04:51:38;102085.38;;;-2.02;64.94
10460;BME280;54412;51.206;6.888;2022-12-18T04:54:04;102084.53;;;-2.01;65.09
10460;BME280;54412;51.206;6.888;2022-12-18T04:56:31;102080.84;;;-1.75;64.65
10460;BME280;54412;51.206;6.888;2022-12-18T04:58:57;102074.91;;;-1.71;63.97
10460;BME280;54412;51.206;6.888;2022-12-18T05:01:22;102080.59;;;-1.47;62.94
10460;BME280;54412;51.206;6.888;2022-12-18T05:03:48;102068.72;;;-1.78;63.98
10460;BME280;54412;51.206;6.888;2022-12-18T05:06:14;102069.66;;;-1.74;63.90
10460;BME280;54412;51.206;6.888;2022-12-18T05:08:40;102068.34;;;-1.94;63.80
10460;BME280;54412;51.206;6.888;2022-12-18T05:11:12;102060.19;;;-1.74;64.31
10460;BME280;54412;51.206;6.888;2022-12-18T05:13:39;102068.91;;;-1.69;64.08
10460;BME280;54412;51.206;6.888;2022-12-18T05:16:05;102069.66;;;-1.74;63.67
10460;BME280;54412;51.206;6.888;2022-12-18T05:18:31;102065.59;;;-1.63;63.43
10460;BME280;54412;51.206;6.888;2022-12-18T05:20:57;102072.34;;;-1.70;64.23
10460;BME280;54412;51.206;6.888;2022-12-18T05:23:25;102072.66;;;-1.56;63.84
10460;BME280;54412;51.206;6.888;2022-12-18T05:25:58;102063.34;;;-1.48;63.77
10460;BME280;54412;51.206;6.888;2022-12-18T05:28:27;102058.16;;;-1.50;63.74
10460;BME280;54412;51.206;6.888;2022-12-18T05:30:59;102056.22;;;-1.58;64.25
10460;BME280;54412;51.206;6.888;2022-12-18T05:33:29;102052.66;;;-1.63;64.10
10460;BME280;54412;51.206;6.888;2022-12-18T05:35:59;102059.84;;;-1.50;64.10
10460;BME280;54412;51.206;6.888;2022-12-18T05:38:30;102071.16;;;-1.45;63.67
10460;BME280;54412;51.206;6.888;2022-12-18T05:40:56;102071.94;;;-1.49;64.14
10460;BME280;54412;51.206;6.888;2022-12-18T05:43:26;102081.50;;;-1.47;63.91
10460;BME280;54412;51.206;6.888;2022-12-18T05:45:53;102080.06;;;-1.73;64.91
10460;BME280;54412;51.206;6.888;2022-12-18T05:48:19;102080.59;;;-1.47;64.14
10460;BME280;54412;51.206;6.888;2022-12-18T05:50:47;102084.56;;;-1.64;64.69
10460;BME280;54412;51.206;6.888;2022-12-18T05:53:19;102084.06;;;-1.85;64.78
10460;BME280;54412;51.206;6.888;2022-12-18T05:55:46;102084.19;;;-2.15;65.06
10460;BME280;54412;51.206;6.888;2022-12-18T05:58:13;102098.81;;;-2.16;65.27
10460;BME280;54412;51.206;6.888;2022-12-18T06:00:43;102102.28;;;-1.79;65.12
10460;BME280;54412;51.206;6.888;2022-12-18T06:03:11;102108.16;;;-1.86;65.21
10460;BME280;54412;51.206;6.888;2022-12-18T06:05:43;102115.22;;;-2.15;65.59
10460;BME280;54412;51.206;6.888;2022-12-18T06:08:10;102118.66;;;-2.16;66.18
10460;BME280;54412;51.206;6.888;2022-12-18T06:10:37;102116.94;;;-2.14;65.72
10460;BME280;54412;51.206;6.888;2022-12-18T06:13:03;102128.09;;;-2.17;66.36
10460;BME280;54412;51.206;6.888;2022-12-18T06:15:29;102121.03;;;-2.24;66.34
10460;BME280;54412;51.206;6.888;2022-12-18T06:17:55;102145.22;;;-2.22;66.23
10460;BME280;54412;51.206;6.888;2022-12-18T06:20:20;102132.69;;;-2.05;66.04
10460;BME280;54412;51.206;6.888;2022-12-18T06:22:46;102135.63;;;-1.91;65.25
10460;BME280;54412;51.206;6.888;2022-12-18T06:25:12;102139.41;;;-2.13;66.06
10460;BME280;54412;51.206;6.888;2022-12-18T06:27:37;102139.25;;;-2.18;66.02
10460;BME280;54412;51.206;6.888;2022-12-18T06:30:05;102136.97;;;-1.73;65.64
10460;BME280;54412;51.206;6.888;2022-12-18T06:32:31;102128.94;;;-1.46;65.05
10460;BME280;54412;51.206;6.888;2022-12-18T06:34:57;102122.75;;;-1.14;64.75
10460;BME280;54412;51.206;6.888;2022-12-18T06:37:23;102121.59;;;-1.28;64.08
10460;BME280;54412;51.206;6.888;2022-12-18T06:39:53;102120.81;;;-1.63;64.13
10460;BME280;54412;51.206;6.888;2022-12-18T06:42:19;102117.63;;;-1.87;64.84
10460;BME280;54412;51.206;6.888;2022-12-18T06:44:44;102113.63;;;-1.74;63.81
10460;BME280;54412;51.206;6.888;2022-12-18T06:47:10;102102.78;;;-1.95;64.91
10460;BME280;54412;51.206;6.888;2022-12-18T06:49:36;102106.03;;;-2.04;65.33
10460;BME280;54412;51.206;6.888;2022-12-18T06:52:01;102101.41;;;-2.16;65.67
10460;BME280;54412;51.206;6.888;2022-12-18T06:54:27;102091.19;;;-2.11;65.75
10460;BME280;54412;51.206;6.888;2022-12-18T06:56:53;102096.13;;;-1.86;65.42
10460;BME280;54412;51.206;6.888;2022-12-18T06:59:18;102094.34;;;-2.23;66.03
10460;BME280;54412;51.206;6.888;2022-12-18T07:01:44;102087.91;;;-2.05;66.00
10460;BME280;54412;51.206;6.888;2022-12-18T07:04:10;102084.00;;;-2.23;66.08
10460;BME280;54412;51.206;6.888;2022-12-18T07:06:36;102080.34;;;-1.96;65.67
10460;BME280;54412;51.206;6.888;2022-12-18T07:09:01;102085.63;;;-1.92;65.40
10460;BME280;54412;51.206;6.888;2022-12-18T07:11:27;102086.28;;;-2.00;65.62
10460;BME280;54412;51.206;6.888;2022-12-18T07:13:53;102083.75;;;-1.97;65.42
10460;BME280;54412;51.206;6.888;2022-12-18T07:16:21;102086.28;;;-2.00;65.77
10460;BME280;54412;51.206;6.888;2022-12-18T07:18:47;102093.06;;;-2.05;66.20
10460;BME280;54412;51.206;6.888;2022-12-18T07:21:17;102099.09;;;-2.05;65.72
10460;BME280;54412;51.206;6.888;2022-12-18T07:23:43;102096.59;;;-2.36;67.22
10460;BME280;54412;51.206;6.888;2022-12-18T07:26:14;102096.50;;;-2.05;66.07
10460;BME280;54412;51.206;6.888;2022-12-18T07:28:41;102092.97;;;-2.08;66.02
10460;BME280;54412;51.206;6.888;2022-12-18T07:31:15;102101.03;;;-1.96;65.34
10460;BME280;54412;51.206;6.888;2022-12-18T07:33:41;102105.63;;;-1.85;64.87
10460;BME280;54412;51.206;6.888;2022-12-18T07:36:09;102095.75;;;-2.01;65.02
10460;BME280;54412;51.206;6.888;2022-12-18T07:38:36;102077.78;;;-2.31;66.00
10460;BME280;54412;51.206;6.888;2022-12-18T07:41:08;102078.47;;;-2.03;64.63
10460;BME280;54412;51.206;6.888;2022-12-18T07:43:35;102075.72;;;-2.09;65.15
10460;BME280;54412;51.206;6.888;2022-12-18T07:46:01;102078.53;;;-2.00;64.81
10460;BME280;54412;51.206;6.888;2022-12-18T07:48:28;102087.97;;;-2.02;65.09
10460;BME280;54412;51.206;6.888;2022-12-18T07:50:59;102086.22;;;-2.03;65.64
10460;BME280;54412;51.206;6.888;2022-12-18T07:53:25;102079.91;;;-1.79;64.73
10460;BME280;54412;51.206;6.888;2022-12-18T07:56:04;102080.59;;;-1.86;65.02
10460;BME280;54412;51.206;6.888;2022-12-18T07:58:31;102073.34;;;-2.00;64.82
10460;BME280;54412;51.206;6.888;2022-12-18T08:01:11;102091.97;;;-1.78;64.42
10460;BME280;54412;51.206;6.888;2022-12-18T08:03:39;102084.84;;;-1.89;64.81
10460;BME280;54412;51.206;6.888;2022-12-18T08:06:08;102080.78;;;-1.78;64.14
10460;BME280;54412;51.206;6.888;2022-12-18T08:08:35;102072.19;;;-1.76;64.36
10460;BME280;54412;51.206;6.888;2022-12-18T08:11:01;102059.41;;;-1.70;63.75
10460;BME280;54412;51.206;6.888;2022-12-18T08:13:28;102056.25;;;-1.94;64.76
10460;BME280;54412;51.206;6.888;2022-12-18T08:15:58;102056.47;;;-1.85;65.13
10460;BME280;54412;51.206;6.888;2022-12-18T08:18:25;102047.06;;;-1.81;65.02
10460;BME280;54412;51.206;6.888;2022-12-18T08:20:51;102050.88;;;-1.67;64.53
10460;BME280;54412;51.206;6.888;2022-12-18T08:23:16;102041.66;;;-1.92;65.49
10460;BME280;54412;51.206;6.888;2022-12-18T08:25:42;102034.72;;;-1.94;65.29
10460;BME280;54412;51.206;6.888;2022-12-18T08:28:08;102030.22;;;-2.01;64.88
10460;BME280;54412;51.206;6.888;2022-12-18T08:30:33;102027.25;;;-1.81;64.63
10460;BME280;54412;51.206;6.888;2022-12-18T08:32:59;102006.34;;;-1.91;64.46
10460;BME280;54412;51.206;6.888;2022-12-18T08:35:24;102012.94;;;-1.65;64.09
10460;BME280;54412;51.206;6.888;2022-12-18T08:37:50;102016.88;;;-1.84;64.68
10460;BME280;54412;51.206;6.888;2022-12-18T08:40:16;102013.41;;;-1.44;63.80
10460;BME280;54412;51.206;6.888;2022-12-18T08:42:41;102013.66;;;-1.32;63.65
10460;BME280;54412;51.206;6.888;2022-12-18T08:45:26;102013.97;;;-1.17;63.38
10460;BME280;54412;51.206;6.888;2022-12-18T08:47:51;102002.25;;;-0.97;62.90
10460;BME280;54412;51.206;6.888;2022-12-18T08:50:17;102008.34;;;-0.93;63.16
10460;BME280;54412;51.206;6.888;2022-12-18T08:52:43;102021.69;;;-0.74;62.42
10460;BME280;54412;51.206;6.888;2022-12-18T08:55:09;102018.44;;;-0.61;61.99
10460;BME280;54412;51.206;6.888;2022-12-18T08:57:35;102029.25;;;-0.37;61.50
10460;BME280;54412;51.206;6.888;2022-12-18T09:00:01;102021.81;;;-0.13;60.87
10460;BME280;54412;51.206;6.888;2022-12-18T09:02:27;102024.69;;;0.06;60.74
10460;BME280;54412;51.206;6.888;2022-12-18T09:04:52;102019.50;;;0.04;59.99
10460;BME280;54412;51.206;6.888;2022-12-18T09:07:18;102016.34;;;0.25;60.01
10460;BME280;54412;51.206;6.888;2022-12-18T09:09:44;102005.38;;;0.45;58.87
10460;BME280;54412;51.206;6.888;2022-12-18T09:12:09;102003.41;;;0.28;59.35
10460;BME280;54412;51.206;6.888;2022-12-18T09:14:36;101996.22;;;0.09;59.98
10460;BME280;54412;51.206;6.888;2022-12-18T09:17:01;101992.25;;;0.36;59.25
10460;BME280;54412;51.206;6.888;2022-12-18T09:19:27;101988.84;;;0.37;59.64
10460;BME280;54412;51.206;6.888;2022-12-18T09:21:53;101998.94;;;0.16;59.20
10460;BME280;54412;51.206;6.888;2022-12-18T09:24:18;101996.53;;;0.31;59.49
10460;BME280;54412;51.206;6.888;2022-12-18T09:26:44;101995.88;;;0.46;58.70
10460;BME280;54412;51.206;6.888;2022-12-18T09:29:10;101995.94;;;0.52;59.34
10460;BME280;54412;51.206;6.888;2022-12-18T09:31:36;101990.34;;;0.92;58.48
10460;BME280;54412;51.206;6.888;2022-12-18T09:34:02;101993.09;;;1.07;57.96
10460;BME280;54412;51.206;6.888;2022-12-18T09:36:27;101996.22;;;0.77;58.27
10460;BME280;54412;51.206;6.888;2022-12-18T09:38:53;101995.69;;;1.05;57.55
10460;BME280;54412;51.206;6.888;2022-12-18T09:41:45;101995.78;;;1.15;57.71
10460;BME280;54412;51.206;6.888;2022-12-18T09:44:36;101989.78;;;1.22;57.44
10460;BME280;54412;51.206;6.888;2022-12-18T09:50:04;101979.41;;;1.23;56.30
10460;BME280;54412;51.206;6.888;2022-12-18T09:52:43;101980.31;;;1.27;56.09
10460;BME280;54412;51.206;6.888;2022-12-18T09:55:35;101973.47;;;1.35;55.81
10460;BME280;54412;51.206;6.888;2022-12-18T09:58:31;101975.13;;;1.30;56.55
10460;BME280;54412;51.206;6.888;2022-12-18T10:01:00;101971.69;;;1.29;56.06
10460;BME280;54412;51.206;6.888;2022-12-18T10:03:26;101973.50;;;1.39;55.80
10460;BME280;54412;51.206;6.888;2022-12-18T10:06:13;101953.56;;;1.40;55.80
10460;BME280;54412;51.206;6.888;2022-12-18T10:09:27;101959.41;;;1.15;56.70
10460;BME280;54412;51.206;6.888;2022-12-18T10:20:47;101951.81;;;1.39;55.71
10460;BME280;54412;51.206;6.888;2022-12-18T10:26:13;101944.13;;;1.49;54.88
10460;BME280;54412;51.206;6.888;2022-12-18T10:28:40;101940.72;;;1.56;54.99
10460;BME280;54412;51.206;6.888;2022-12-18T10:31:14;101938.19;;;1.73;55.30
10460;BME280;54412;51.206;6.888;2022-12-18T10:33:42;101937.38;;;1.77;54.24
10460;BME280;54412;51.206;6.888;2022-12-18T10:36:08;101928.69;;;1.76;54.19
10460;BME280;54412;51.206;6.888;2022-12-18T10:38:35;101916.63;;;1.84;54.14
10460;BME280;54412;51.206;6.888;2022-12-18T10:43:35;101913.22;;;1.97;53.54
10460;BME280;54412;51.206;6.888;2022-12-18T10:48:52;101922.81;;;2.09;52.82
10460;BME280;54412;51.206;6.888;2022-12-18T10:51:37;101920.16;;;1.97;53.16
10460;BME280;54412;51.206;6.888;2022-12-18T10:54:22;101907.09;;;1.91;53.53
10460;BME280;54412;51.206;6.888;2022-12-18T10:56:48;101902.78;;;1.88;53.48
10460;BME280;54412;51.206;6.888;2022-12-18T10:59:17;101902.78;;;1.93;52.77
10460;BME280;54412;51.206;6.888;2022-12-18T11:01:57;101898.50;;;1.99;53.38
10460;BME280;54412;51.206;6.888;2022-12-18T11:04:28;101880.31;;;2.08;53.26
10460;BME280;54412;51.206;6.888;2022-12-18T11:07:06;101877.63;;;1.93;53.40
10460;BME280;54412;51.206;6.888;2022-12-18T11:09:35;101880.28;;;1.99;53.01
10460;BME280;54412;51.206;6.888;2022-12-18T11:12:13;101887.28;;;2.23;53.59
10460;BME280;54412;51.206;6.888;2022-12-18T11:14:49;101890.72;;;2.08;53.05
10460;BME280;54412;51.206;6.888;2022-12-18T11:17:32;101885.53;;;2.08;53.06
10460;BME280;54412;51.206;6.888;2022-12-18T11:20:03;101860.41;;;2.21;52.96
10460;BME280;54412;51.206;6.888;2022-12-18T11:22:33;101869.94;;;2.19;52.95
10460;BME280;54412;51.206;6.888;2022-12-18T11:27:47;101876.13;;;2.56;55.32
10460;BME280;54412;51.206;6.888;2022-12-18T11:30:30;101866.56;;;2.59;52.42
10460;BME280;54412;51.206;6.888;2022-12-18T11:33:10;101866.59;;;2.61;52.53
10460;BME280;54412;51.206;6.888;2022-12-18T11:35:59;101857.03;;;2.46;52.62
10460;BME280;54412;51.206;6.888;2022-12-18T11:38:36;101850.06;;;2.51;52.51
10460;BME280;54412;51.206;6.888;2022-12-18T11:47:41;101830.09;;;2.35;53.37
10460;BME280;54412;51.206;6.888;2022-12-18T11:50:26;101834.34;;;2.13;53.21
10460;BME280;54412;51.206;6.888;2022-12-18T11:52:53;101835.19;;;2.08;53.17
10460;BME280;54412;51.206;6.888;2022-12-18T12:04:46;101846.34;;;1.77;54.47
10460;BME280;54412;51.206;6.888;2022-12-18T12:10:37;101838.63;;;1.96;53.69
10460;BME280;54412;51.206;6.888;2022-12-18T12:13:58;101841.22;;;1.90;53.91
10460;BME280;54412;51.206;6.888;2022-12-18T12:16:34;101852.41;;;1.82;54.18
10460;BME280;54412;51.206;6.888;2022-12-18T12:30:26;101813.44;;;1.88;54.62
10460;BME280;54412;51.206;6.888;2022-12-18T12:36:04;101818.56;;;1.70;55.48
10460;BME280;54412;51.206;6.888;2022-12-18T12:38:47;101816.00;;;1.82;55.21
10460;BME280;54412;51.206;6.888;2022-12-18T12:41:21;101821.25;;;1.86;55.22
10460;BME280;54412;51.206;6.888;2022-12-18T12:47:48;101801.28;;;1.78;55.43
10460;BME280;54412;51.206;6.888;2022-12-18T12:50:18;101795.16;;;1.71;55.12
10460;BME280;54412;51.206;6.888;2022-12-18T12:52:50;101805.66;;;1.94;55.58
10460;BME280;54412;51.206;6.888;2022-12-18T12:55:22;101808.16;;;1.73;55.22
10460;BME280;54412;51.206;6.888;2022-12-18T13:03:49;101814.28;;;1.84;55.38
10460;BME280;54412;51.206;6.888;2022-12-18T13:06:33;101818.63;;;1.89;55.27
10460;BME280;54412;51.206;6.888;2022-12-18T13:09:02;101809.91;;;1.75;54.95
10460;BME280;54412;51.206;6.888;2022-12-18T13:11:41;101824.53;;;1.52;55.34
10460;BME280;54412;51.206;6.888;2022-12-18T13:14:29;101829.75;;;1.52;55.33
10460;BME280;54412;51.206;6.888;2022-12-18T13:20:12;101826.25;;;1.50;54.17
10460;BME280;54412;51.206;6.888;2022-12-18T13:22:47;101821.06;;;1.47;54.71
10460;BME280;54412;51.206;6.888;2022-12-18T13:25:32;101803.78;;;1.61;54.56
10460;BME280;54412;51.206;6.888;2022-12-18T13:28:14;101805.47;;;1.50;54.66
10460;BME280;54412;51.206;6.888;2022-12-18T13:30:52;101799.41;;;1.57;54.56
10460;BME280;54412;51.206;6.888;2022-12-18T13:41:25;101766.44;;;1.46;55.01
10460;BME280;54412;51.206;6.888;2022-12-18T13:43:56;101770.81;;;1.53;55.15
10460;BME280;54412;51.206;6.888;2022-12-18T13:46:53;101756.16;;;1.79;54.56
10460;BME280;54412;51.206;6.888;2022-12-18T13:49:40;101765.63;;;1.57;54.89
10460;BME280;54412;51.206;6.888;2022-12-18T13:52:21;101742.19;;;1.48;55.52
10460;BME280;54412;51.206;6.888;2022-12-18T13:55:16;101739.63;;;1.56;56.74
10460;BME280;54412;51.206;6.888;2022-12-18T13:57:43;101745.66;;;1.55;55.50
10460;BME280;54412;51.206;6.888;2022-12-18T14:00:29;101776.75;;;1.31;55.06
10460;BME280;54412;51.206;6.888;2022-12-18T14:02:57;101751.59;;;1.30;55.19
10460;BME280;54412;51.206;6.888;2022-12-18T14:05:36;101742.97;;;1.32;55.61
10460;BME280;54412;51.206;6.888;2022-12-18T14:08:10;101742.09;;;1.27;55.62
10460;BME280;54412;51.206;6.888;2022-12-18T14:10:41;101751.56;;;1.21;55.34
10460;BME280;54412;51.206;6.888;2022-12-18T14:13:13;101736.00;;;1.24;54.99
10460;BME280;54412;51.206;6.888;2022-12-18T14:15:43;101752.38;;;1.08;55.26
10460;BME280;54412;51.206;6.888;2022-12-18T14:18:21;101742.88;;;1.16;55.79
10460;BME280;54412;51.206;6.888;2022-12-18T14:20:50;101741.09;;;1.07;55.40
10460;BME280;54412;51.206;6.888;2022-12-18T14:23:37;101737.59;;;1.03;55.46
10460;BME280;54412;51.206;6.888;2022-12-18T14:26:28;101735.97;;;1.18;54.90
10460;BME280;54412;51.206;6.888;2022-12-18T14:28:57;101737.66;;;1.10;55.64
10460;BME280;54412;51.206;6.888;2022-12-18T14:31:27;101734.13;;;1.03;55.59
10460;BME280;54412;51.206;6.888;2022-12-18T14:33:54;101723.78;;;1.08;56.05
10460;BME280;54412;51.206;6.888;2022-12-18T14:36:24;101710.84;;;1.17;56.38
10460;BME280;54412;51.206;6.888;2022-12-18T14:38:55;101729.81;;;1.03;55.36
10460;BME280;54412;51.206;6.888;2022-12-18T14:41:23;101731.47;;;0.91;56.07
10460;BME280;54412;51.206;6.888;2022-12-18T14:43:54;101730.63;;;0.95;56.09